sensor_id;sensor_type;location;lat;lon;timestamp;pressure;altitude;pressure_sealevel;temperature;humidity
2268;BME280;11052;43.338;25.502;2023-04-22T00:00:46;100366.16;;;10.32;100.00
2268;BME280;11052;43.338;25.502;2023-04-22T00:03:13;100364.31;;;10.36;100.00
2268;BME280;11052;43.338;25.502;2023-04-22T00:05:40;100367.72;;;10.38;100.00
2268;BME280;11052;43.338;25.502;2023-04-22T00:08:10;100368.56;;;10.38;100.00
2268;BME280;11052;43.338;25.502;2023-04-22T00:10:37;100364.13;;;10.42;100.00
2268;BME280;11052;43.338;25.502;2023-04-22T00:13:05;100369.09;;;10.49;100.00
2268;BME280;11052;43.338;25.502;2023-04-22T00:15:32;100368.09;;;10.54;100.00
2268;BME280;11052;43.338;25.502;2023-04-22T00:17:59;100356.97;;;10.50;100.00
2268;BME280;11052;43.338;25.502;2023-04-22T00:20:26;100357.03;;;10.48;100.00
2268;BME280;11052;43.338;25.502;2023-04-22T00:22:53;100361.41;;;10.46;100.00
2268;BME280;11052;43.338;25.502;2023-04-22T00:25:22;100358.88;;;10.43;100.00
2268;BME280;11052;43.338;25.502;2023-04-22T00:27:49;100364.88;;;10.45;100.00
2268;BME280;11052;43.338;25.502;2023-04-22T00:30:16;100364.84;;;10.47;100.00
2268;BME280;11052;43.338;25.502;2023-04-22T00:32:43;100359.59;;;10.48;100.00
2268;BME280;11052;43.338;25.502;2023-04-22T00:35:10;100362.97;;;10.52;100.00
2268;BME280;11052;43.338;25.502;2023-04-22T00:37:38;100360.38;;;10.52;100.00
2268;BME280;11052;43.338;25.502;2023-04-22T00:40:06;100362.06;;;10.53;100.00
2268;BME280;11052;43.338;25.502;2023-04-22T00:42:36;100363.06;;;10.49;100.00
2268;BME280;11052;43.338;25.502;2023-04-22T00:45:04;100362.38;;;10.42;100.00
2268;BME280;11052;43.338;25.502;2023-04-22T00:47:36;100367.81;;;10.35;100.00
2268;BME280;11052;43.338;25.502;2023-04-22T00:50:04;100364.50;;;10.30;100.00
2268;BME280;11052;43.338;25.502;2023-04-22T00:52:32;100364.75;;;10.21;100.00
2268;BME280;11052;43.338;25.502;2023-04-22T00:54:59;100363.13;;;10.15;100.00
2268;BME280;11052;43.338;25.502;2023-04-22T00:57:28;100359.63;;;10.17;100.00
2268;BME280;11052;43.338;25.502;2023-04-22T00:59:57;100359.63;;;10.17;100.00
2268;BME280;11052;43.338;25.502;2023-04-22T01:02:25;100363.06;;;10.18;100.00
2268;BME280;11052;43.338;25.502;2023-04-22T01:04:52;100356.13;;;10.18;100.00
2268;BME280;11052;43.338;25.502;2023-04-22T01:07:19;100358.84;;;10.14;100.00
2268;BME280;11052;43.338;25.502;2023-04-22T01:09:47;100366.81;;;10.06;100.00
2268;BME280;11052;43.338;25.502;2023-04-22T01:12:14;100372.25;;;9.97;100.00
2268;BME280;11052;43.338;25.502;2023-04-22T01:14:41;100368.69;;;10.01;100.00
2268;BME280;11052;43.338;25.502;2023-04-22T01:17:10;100372.94;;;10.04;100.00
2268;BME280;11052;43.338;25.502;2023-04-22T01:19:39;100369.53;;;10.02;100.00
2268;BME280;11052;43.338;25.502;2023-04-22T01:22:08;100372.97;;;10.02;100.00
2268;BME280;11052;43.338;25.502;2023-04-22T01:24:38;100361.72;;;10.03;100.00
2268;BME280;11052;43.338;25.502;2023-04-22T01:27:05;100369.69;;;9.96;100.00
2268;BME280;11052;43.338;25.502;2023-04-22T01:29:36;100365.50;;;9.92;100.00
2268;BME280;11052;43.338;25.502;2023-04-22T01:32:04;100361.44;;;9.81;100.00
2268;BME280;11052;43.338;25.502;2023-04-22T01:34:31;100374.50;;;9.77;100.00
2268;BME280;11052;43.338;25.502;2023-04-22T01:36:58;100367.69;;;9.73;100.00
2268;BME280;11052;43.338;25.502;2023-04-22T01:39:26;100371.25;;;9.69;100.00
2268;BME280;11052;43.338;25.502;2023-04-22T01:41:54;100366.28;;;9.61;100.00
2268;BME280;11052;43.338;25.502;2023-04-22T01:44:23;100368.03;;;9.59;100.00
2268;BME280;11052;43.338;25.502;2023-04-22T01:46:50;100368.16;;;9.54;100.00
2268;BME280;11052;43.338;25.502;2023-04-22T01:49:17;100378.63;;;9.51;100.00
2268;BME280;11052;43.338;25.502;2023-04-22T01:51:44;100379.84;;;9.37;100.00
2268;BME280;11052;43.338;25.502;2023-04-22T01:54:11;100376.41;;;9.36;100.00
2268;BME280;11052;43.338;25.502;2023-04-22T01:56:38;100380.22;;;9.20;100.00
2268;BME280;11052;43.338;25.502;2023-04-22T01:59:07;100367.97;;;9.28;100.00
2268;BME280;11052;43.338;25.502;2023-04-22T02:01:34;100364.28;;;9.38;100.00
2268;BME280;11052;43.338;25.502;2023-04-22T02:04:01;100372.94;;;9.37;100.00
2268;BME280;11052;43.338;25.502;2023-04-22T02:06:29;100366.94;;;9.35;100.00
2268;BME280;11052;43.338;25.502;2023-04-22T02:08:56;100370.47;;;9.31;100.00
2268;BME280;11052;43.338;25.502;2023-04-22T02:11:24;100363.50;;;9.35;100.00
2268;BME280;11052;43.338;25.502;2023-04-22T02:13:51;100369.59;;;9.32;100.00
2268;BME280;11052;43.338;25.502;2023-04-22T02:16:19;100379.91;;;9.34;100.00
2268;BME280;11052;43.338;25.502;2023-04-22T02:18:46;100369.59;;;9.32;100.00
2268;BME280;11052;43.338;25.502;2023-04-22T02:21:13;100368.72;;;9.33;100.00
2268;BME280;11052;43.338;25.502;2023-04-22T02:23:40;100370.31;;;9.39;100.00
2268;BME280;11052;43.338;25.502;2023-04-22T02:26:08;100370.34;;;9.37;100.00
2268;BME280;11052;43.338;25.502;2023-04-22T02:28:35;100378.94;;;9.38;100.00
2268;BME280;11052;43.338;25.502;2023-04-22T02:31:03;100368.78;;;9.30;100.00
2268;BME280;11052;43.338;25.502;2023-04-22T02:33:31;100375.66;;;9.31;100.00
2268;BME280;11052;43.338;25.502;2023-04-22T02:35:58;100378.38;;;9.25;100.00
2268;BME280;11052;43.338;25.502;2023-04-22T02:38:25;100366.31;;;9.26;100.00
2268;BME280;11052;43.338;25.502;2023-04-22T02:40:53;100371.59;;;9.21;100.00
2268;BME280;11052;43.338;25.502;2023-04-22T02:43:20;100374.34;;;9.13;100.00
2268;BME280;11052;43.338;25.502;2023-04-22T02:45:47;100368.34;;;9.11;100.00
2268;BME280;11052;43.338;25.502;2023-04-22T02:48:14;100370.03;;;9.14;100.00
2268;BME280;11052;43.338;25.502;2023-04-22T02:50:42;100375.13;;;9.17;100.00
2268;BME280;11052;43.338;25.502;2023-04-22T02:53:09;100370.81;;;9.17;100.00
2268;BME280;11052;43.338;25.502;2023-04-22T02:55:38;100377.72;;;9.17;100.00
2268;BME280;11052;43.338;25.502;2023-04-22T02:58:06;100379.34;;;9.21;100.00
2268;BME280;11052;43.338;25.502;2023-04-22T03:00:33;100385.41;;;9.20;100.00
2268;BME280;11052;43.338;25.502;2023-04-22T03:03:00;100382.88;;;9.17;100.00
2268;BME280;11052;43.338;25.502;2023-04-22T03:05:28;100381.06;;;9.20;100.00
2268;BME280;11052;43.338;25.502;2023-04-22T03:07:56;100383.66;;;9.20;100.00
2268;BME280;11052;43.338;25.502;2023-04-22T03:10:23;100384.53;;;9.19;100.00
2268;BME280;11052;43.338;25.502;2023-04-22T03:12:50;100391.38;;;9.22;100.00
2268;BME280;11052;43.338;25.502;2023-04-22T03:15:18;100384.47;;;9.23;100.00
2268;BME280;11052;43.338;25.502;2023-04-22T03:17:45;100387.81;;;9.28;100.00
2268;BME280;11052;43.338;25.502;2023-04-22T03:20:12;100385.13;;;9.32;100.00
2268;BME280;11052;43.338;25.502;2023-04-22T03:22:39;100377.25;;;9.37;100.00
2268;BME280;11052;43.338;25.502;2023-04-22T03:25:09;100382.53;;;9.32;100.00
2268;BME280;11052;43.338;25.502;2023-04-22T03:27:37;100383.34;;;9.34;100.00
2268;BME280;11052;43.338;25.502;2023-04-22T03:30:05;100383.34;;;9.34;100.00
2268;BME280;11052;43.338;25.502;2023-04-22T03:32:32;100388.47;;;9.36;100.00
2268;BME280;11052;43.338;25.502;2023-04-22T03:35:00;100379.28;;;9.24;100.00
2268;BME280;11052;43.338;25.502;2023-04-22T03:37:27;100383.69;;;9.19;100.00
2268;BME280;11052;43.338;25.502;2023-04-22T03:39:54;100392.19;;;9.24;100.00
2268;BME280;11052;43.338;25.502;2023-04-22T03:42:23;100388.59;;;9.31;100.00
2268;BME280;11052;43.338;25.502;2023-04-22T03:44:50;100392.00;;;9.33;100.00
2268;BME280;11052;43.338;25.502;2023-04-22T03:47:17;100401.38;;;9.37;100.00
2268;BME280;11052;43.338;25.502;2023-04-22T03:49:44;100405.78;;;9.34;100.00
2268;BME280;11052;43.338;25.502;2023-04-22T03:52:11;100412.56;;;9.38;100.00
2268;BME280;11052;43.338;25.502;2023-04-22T03:54:38;100409.13;;;9.37;100.00
2268;BME280;11052;43.338;25.502;2023-04-22T03:57:05;100408.97;;;9.45;100.00
2268;BME280;11052;43.338;25.502;2023-04-22T03:59:34;100417.41;;;9.53;100.00
2268;BME280;11052;43.338;25.502;2023-04-22T04:02:01;100419.03;;;9.56;100.00
2268;BME280;11052;43.338;25.502;2023-04-22T04:04:28;100423.25;;;9.60;100.00
2268;BME280;11052;43.338;25.502;2023-04-22T04:06:57;100423.22;;;9.61;100.00
2268;BME280;11052;43.338;25.502;2023-04-22T04:09:24;100433.50;;;9.64;100.00
2268;BME280;11052;43.338;25.502;2023-04-22T04:11:51;100435.19;;;9.65;100.00
2268;BME280;11052;43.338;25.502;2023-04-22T04:14:18;100431.75;;;9.65;100.00
2268;BME280;11052;43.338;25.502;2023-04-22T04:16:47;100422.94;;;9.72;100.00
2268;BME280;11052;43.338;25.502;2023-04-22T04:19:14;100426.28;;;9.77;100.00
2268;BME280;11052;43.338;25.502;2023-04-22T04:21:41;100428.81;;;9.78;100.00
2268;BME280;11052;43.338;25.502;2023-04-22T04:24:08;100426.16;;;9.81;100.00
2268;BME280;11052;43.338;25.502;2023-04-22T04:26:35;100433.09;;;9.81;100.00
2268;BME280;11052;43.338;25.502;2023-04-22T04:29:03;100436.44;;;9.84;100.00
2268;BME280;11052;43.338;25.502;2023-04-22T04:31:30;100431.16;;;9.89;100.00
2268;BME280;11052;43.338;25.502;2023-04-22T04:33:59;100439.66;;;9.94;100.00
2268;BME280;11052;43.338;25.502;2023-04-22T04:36:26;100439.50;;;10.00;100.00
2268;BME280;11052;43.338;25.502;2023-04-22T04:38:54;100434.25;;;10.03;100.00
2268;BME280;11052;43.338;25.502;2023-04-22T04:41:21;100447.19;;;10.03;100.00
2268;BME280;11052;43.338;25.502;2023-04-22T04:43:51;100448.97;;;10.01;100.00
2268;BME280;11052;43.338;25.502;2023-04-22T04:46:19;100458.50;;;9.99;100.00
2268;BME280;11052;43.338;25.502;2023-04-22T04:48:46;100471.56;;;9.95;100.00
2268;BME280;11052;43.338;25.502;2023-04-22T04:51:16;100469.75;;;9.98;100.00
2268;BME280;11052;43.338;25.502;2023-04-22T04:53:43;100470.50;;;10.03;100.00
2268;BME280;11052;43.338;25.502;2023-04-22T04:56:10;100467.78;;;10.08;100.00
2268;BME280;11052;43.338;25.502;2023-04-22T04:58:37;100465.09;;;10.12;100.00
2268;BME280;11052;43.338;25.502;2023-04-22T05:01:05;100474.56;;;10.13;100.00
2268;BME280;11052;43.338;25.502;2023-04-22T05:03:32;100476.19;;;10.17;100.00
2268;BME280;11052;43.338;25.502;2023-04-22T05:05:59;100481.44;;;10.14;100.00
2268;BME280;11052;43.338;25.502;2023-04-22T05:08:27;100485.66;;;10.20;100.00
2268;BME280;11052;43.338;25.502;2023-04-22T05:10:54;100486.53;;;10.17;100.00
2268;BME280;11052;43.338;25.502;2023-04-22T05:13:21;100482.38;;;10.12;100.00
2268;BME280;11052;43.338;25.502;2023-04-22T05:15:49;100482.00;;;10.27;100.00
2268;BME280;11052;43.338;25.502;2023-04-22T05:18:16;100483.59;;;10.33;100.00
2268;BME280;11052;43.338;25.502;2023-04-22T05:20:43;100481.78;;;10.36;100.00
2268;BME280;11052;43.338;25.502;2023-04-22T05:23:10;100476.56;;;10.38;100.00
2268;BME280;11052;43.338;25.502;2023-04-22T05:25:39;100480.94;;;10.36;100.00
2268;BME280;11052;43.338;25.502;2023-04-22T05:28:06;100475.34;;;10.49;100.00
2268;BME280;11052;43.338;25.502;2023-04-22T05:30:33;100480.44;;;10.52;100.00
2268;BME280;11052;43.338;25.502;2023-04-22T05:33:00;100487.13;;;10.61;100.00
2268;BME280;11052;43.338;25.502;2023-04-22T05:35:27;100485.38;;;10.62;100.00
2268;BME280;11052;43.338;25.502;2023-04-22T05:37:55;100490.41;;;10.68;100.00
2268;BME280;11052;43.338;25.502;2023-04-22T05:40:22;100494.41;;;10.79;100.00
2268;BME280;11052;43.338;25.502;2023-04-22T05:42:50;100495.09;;;10.86;100.00
2268;BME280;11052;43.338;25.502;2023-04-22T05:45:18;100492.38;;;10.91;100.00
2268;BME280;11052;43.338;25.502;2023-04-22T05:47:45;100498.13;;;11.00;100.00
2268;BME280;11052;43.338;25.502;2023-04-22T05:50:12;100490.34;;;11.00;100.00
2268;BME280;11052;43.338;25.502;2023-04-22T05:52:39;100485.56;;;11.16;100.00
2268;BME280;11052;43.338;25.502;2023-04-22T05:55:07;100491.47;;;11.21;100.00
2268;BME280;11052;43.338;25.502;2023-04-22T05:57:34;100496.53;;;11.26;100.00
2268;BME280;11052;43.338;25.502;2023-04-22T06:00:04;100491.19;;;11.30;100.00
2268;BME280;11052;43.338;25.502;2023-04-22T06:02:31;100495.25;;;11.39;100.00
2268;BME280;11052;43.338;25.502;2023-04-22T06:04:59;100500.28;;;11.43;100.00
2268;BME280;11052;43.338;25.502;2023-04-22T06:07:26;100509.78;;;11.44;100.00
2268;BME280;11052;43.338;25.502;2023-04-22T06:09:54;100510.44;;;11.51;100.00
2268;BME280;11052;43.338;25.502;2023-04-22T06:12:21;100509.41;;;11.57;100.00
2268;BME280;11052;43.338;25.502;2023-04-22T06:14:48;100510.94;;;11.64;100.00
2268;BME280;11052;43.338;25.502;2023-04-22T06:17:17;100505.53;;;11.70;100.00
2268;BME280;11052;43.338;25.502;2023-04-22T06:19:44;100517.53;;;11.74;100.00
2268;BME280;11052;43.338;25.502;2023-04-22T06:22:11;100518.31;;;11.77;100.00
2268;BME280;11052;43.338;25.502;2023-04-22T06:24:38;100526.88;;;11.81;100.00
2268;BME280;11052;43.338;25.502;2023-04-22T06:27:05;100526.13;;;11.76;100.00
2268;BME280;11052;43.338;25.502;2023-04-22T06:29:32;100531.25;;;11.79;100.00
2268;BME280;11052;43.338;25.502;2023-04-22T06:32:00;100533.13;;;11.74;100.00
2268;BME280;11052;43.338;25.502;2023-04-22T06:34:29;100531.50;;;11.70;100.00
2268;BME280;11052;43.338;25.502;2023-04-22T06:36:56;100539.84;;;11.81;100.00
2268;BME280;11052;43.338;25.502;2023-04-22T06:39:23;100539.81;;;11.82;100.00
2268;BME280;11052;43.338;25.502;2023-04-22T06:41:50;100536.41;;;11.80;100.00
2268;BME280;11052;43.338;25.502;2023-04-22T06:44:17;100549.00;;;11.93;100.00
2268;BME280;11052;43.338;25.502;2023-04-22T06:46:45;100548.44;;;11.83;100.00
2268;BME280;11052;43.338;25.502;2023-04-22T06:49:12;100557.78;;;11.89;100.00
2268;BME280;11052;43.338;25.502;2023-04-22T06:51:40;100572.44;;;11.91;100.00
2268;BME280;11052;43.338;25.502;2023-04-22T06:54:07;100566.25;;;11.95;100.00
2268;BME280;11052;43.338;25.502;2023-04-22T06:56:35;100561.94;;;11.94;100.00
2268;BME280;11052;43.338;25.502;2023-04-22T06:59:02;100570.75;;;11.90;100.00
2268;BME280;11052;43.338;25.502;2023-04-22T07:01:29;100576.72;;;11.92;100.00
2268;BME280;11052;43.338;25.502;2023-04-22T07:03:56;100577.88;;;11.84;100.00
2268;BME280;11052;43.338;25.502;2023-04-22T07:06:23;100571.31;;;12.00;100.00
2268;BME280;11052;43.338;25.502;2023-04-22T07:08:52;100575.94;;;11.90;100.00
2268;BME280;11052;43.338;25.502;2023-04-22T07:11:19;100571.25;;;12.01;100.00
2268;BME280;11052;43.338;25.502;2023-04-22T07:13:46;100572.63;;;12.13;100.00
2268;BME280;11052;43.338;25.502;2023-04-22T07:16:13;100577.09;;;12.34;100.00
2268;BME280;11052;43.338;25.502;2023-04-22T07:18:40;100582.50;;;12.28;100.00
2268;BME280;11052;43.338;25.502;2023-04-22T07:21:08;100582.03;;;12.42;100.00
2268;BME280;11052;43.338;25.502;2023-04-22T07:23:35;100584.94;;;12.33;100.00
2268;BME280;11052;43.338;25.502;2023-04-22T07:26:04;100589.38;;;12.56;100.00
2268;BME280;11052;43.338;25.502;2023-04-22T07:28:31;100585.84;;;12.58;100.00
2268;BME280;11052;43.338;25.502;2023-04-22T07:30:58;100584.34;;;12.76;100.00
2268;BME280;11052;43.338;25.502;2023-04-22T07:33:25;100590.94;;;12.86;100.00
2268;BME280;11052;43.338;25.502;2023-04-22T07:35:52;100587.34;;;12.90;100.00
2268;BME280;11052;43.338;25.502;2023-04-22T07:38:19;100586.28;;;12.96;100.00
2268;BME280;11052;43.338;25.502;2023-04-22T07:40:46;100582.66;;;13.00;100.00
2268;BME280;11052;43.338;25.502;2023-04-22T07:43:15;100578.06;;;13.06;100.00
2268;BME280;11052;43.338;25.502;2023-04-22T07:45:43;100585.59;;;13.14;100.00
2268;BME280;11052;43.338;25.502;2023-04-22T07:48:10;100579.75;;;13.32;100.00
2268;BME280;11052;43.338;25.502;2023-04-22T07:50:38;100580.75;;;13.28;100.00
2268;BME280;11052;43.338;25.502;2023-04-22T07:53:05;100581.59;;;13.29;100.00
2268;BME280;11052;43.338;25.502;2023-04-22T07:55:33;100582.34;;;13.32;100.00
2268;BME280;11052;43.338;25.502;2023-04-22T07:58:00;100584.16;;;13.54;100.00
2268;BME280;11052;43.338;25.502;2023-04-22T08:00:32;100587.78;;;13.50;100.00
2268;BME280;11052;43.338;25.502;2023-04-22T08:03:01;100587.31;;;13.62;100.00
2268;BME280;11052;43.338;25.502;2023-04-22T08:05:28;100589.16;;;13.82;100.00
2268;BME280;11052;43.338;25.502;2023-04-22T08:07:55;100585.25;;;13.92;100.00
2268;BME280;11052;43.338;25.502;2023-04-22T08:10:22;100585.28;;;14.14;100.00
2268;BME280;11052;43.338;25.502;2023-04-22T08:12:51;100585.44;;;14.31;100.00
2268;BME280;11052;43.338;25.502;2023-04-22T08:15:18;100590.84;;;14.26;100.00
2268;BME280;11052;43.338;25.502;2023-04-22T08:17:46;100595.75;;;14.34;100.00
2268;BME280;11052;43.338;25.502;2023-04-22T08:20:14;100600.44;;;14.48;100.00
2268;BME280;11052;43.338;25.502;2023-04-22T08:22:42;100602.56;;;14.79;100.00
2268;BME280;11052;43.338;25.502;2023-04-22T08:25:10;100602.00;;;14.92;100.00
2268;BME280;11052;43.338;25.502;2023-04-22T08:27:37;100599.25;;;14.95;100.00
2268;BME280;11052;43.338;25.502;2023-04-22T08:30:06;100602.06;;;14.91;100.00
2268;BME280;11052;43.338;25.502;2023-04-22T08:32:33;100603.94;;;15.07;100.00
2268;BME280;11052;43.338;25.502;2023-04-22T08:35:02;100607.06;;;15.16;100.00
2268;BME280;11052;43.338;25.502;2023-04-22T08:37:29;100612.81;;;15.24;100.00
2268;BME280;11052;43.338;25.502;2023-04-22T08:39:56;100617.19;;;15.23;100.00
2268;BME280;11052;43.338;25.502;2023-04-22T08:42:23;100618.66;;;15.29;100.00
2268;BME280;11052;43.338;25.502;2023-04-22T08:44:52;100615.78;;;15.35;100.00
2268;BME280;11052;43.338;25.502;2023-04-22T08:47:20;100615.94;;;15.51;100.00
2268;BME280;11052;43.338;25.502;2023-04-22T08:49:48;100616.63;;;15.35;100.00
2268;BME280;11052;43.338;25.502;2023-04-22T08:52:18;100618.97;;;15.41;100.00
2268;BME280;11052;43.338;25.502;2023-04-22T08:54:45;100615.06;;;15.31;100.00
2268;BME280;11052;43.338;25.502;2023-04-22T08:57:13;100611.63;;;15.50;100.00
2268;BME280;11052;43.338;25.502;2023-04-22T08:59:41;100607.25;;;15.31;100.00
2268;BME280;11052;43.338;25.502;2023-04-22T09:02:13;100606.59;;;15.26;100.00
2268;BME280;11052;43.338;25.502;2023-04-22T09:04:43;100614.44;;;15.26;100.00
2268;BME280;11052;43.338;25.502;2023-04-22T09:07:13;100608.88;;;15.34;100.00
2268;BME280;11052;43.338;25.502;2023-04-22T09:09:47;100606.47;;;15.48;100.00
2268;BME280;11052;43.338;25.502;2023-04-22T09:12:14;100600.06;;;15.74;100.00
2268;BME280;11052;43.338;25.502;2023-04-22T09:14:43;100607.19;;;15.70;100.00
2268;BME280;11052;43.338;25.502;2023-04-22T09:17:14;100605.22;;;15.76;100.00
2268;BME280;11052;43.338;25.502;2023-04-22T09:19:42;100608.41;;;15.82;100.00
2268;BME280;11052;43.338;25.502;2023-04-22T09:22:09;100609.72;;;16.10;100.00
2268;BME280;11052;43.338;25.502;2023-04-22T09:24:42;100601.44;;;16.19;100.00
2268;BME280;11052;43.338;25.502;2023-04-22T09:27:11;100600.06;;;16.29;100.00
2268;BME280;11052;43.338;25.502;2023-04-22T09:29:38;100600.31;;;16.42;100.00
2268;BME280;11052;43.338;25.502;2023-04-22T09:32:09;100607.44;;;16.55;100.00
2268;BME280;11052;43.338;25.502;2023-04-22T09:34:45;100603.69;;;16.61;100.00
2268;BME280;11052;43.338;25.502;2023-04-22T09:37:12;100608.56;;;16.68;100.00
2268;BME280;11052;43.338;25.502;2023-04-22T09:39:41;100596.78;;;16.77;100.00
2268;BME280;11052;43.338;25.502;2023-04-22T09:42:08;100597.47;;;16.81;100.00
2268;BME280;11052;43.338;25.502;2023-04-22T09:44:38;100596.75;;;17.12;100.00
2268;BME280;11052;43.338;25.502;2023-04-22T09:47:05;100600.16;;;17.29;100.00
2268;BME280;11052;43.338;25.502;2023-04-22T09:49:36;100594.50;;;17.37;100.00
2268;BME280;11052;43.338;25.502;2023-04-22T09:52:03;100606.09;;;17.33;100.00
2268;BME280;11052;43.338;25.502;2023-04-22T09:54:30;100607.03;;;17.32;100.00
2268;BME280;11052;43.338;25.502;2023-04-22T09:56:58;100606.81;;;17.35;100.00
2268;BME280;11052;43.338;25.502;2023-04-22T09:59:27;100609.59;;;17.16;100.00
2268;BME280;11052;43.338;25.502;2023-04-22T10:01:58;100604.81;;;17.40;100.00
2268;BME280;11052;43.338;25.502;2023-04-22T10:04:28;100602.97;;;17.58;100.00
2268;BME280;11052;43.338;25.502;2023-04-22T10:06:56;100604.06;;;17.54;100.00
2268;BME280;11052;43.338;25.502;2023-04-22T10:09:24;100600.19;;;17.61;100.00
2268;BME280;11052;43.338;25.502;2023-04-22T10:11:53;100599.31;;;17.78;100.00
2268;BME280;11052;43.338;25.502;2023-04-22T10:14:21;100599.91;;;17.83;100.00
2268;BME280;11052;43.338;25.502;2023-04-22T10:16:52;100595.31;;;18.02;100.00
2268;BME280;11052;43.338;25.502;2023-04-22T10:19:23;100593.53;;;18.18;100.00
2268;BME280;11052;43.338;25.502;2023-04-22T10:21:52;100583.72;;;18.06;100.00
2268;BME280;11052;43.338;25.502;2023-04-22T10:24:20;100589.69;;;18.24;100.00
2268;BME280;11052;43.338;25.502;2023-04-22T10:26:49;100605.47;;;17.77;100.00
2268;BME280;11052;43.338;25.502;2023-04-22T10:29:19;100605.72;;;17.23;100.00
2268;BME280;11052;43.338;25.502;2023-04-22T10:31:53;100606.41;;;16.77;100.00
2268;BME280;11052;43.338;25.502;2023-04-22T10:34:23;100612.66;;;16.21;100.00
2268;BME280;11052;43.338;25.502;2023-04-22T10:37:00;100609.94;;;15.86;100.00
2268;BME280;11052;43.338;25.502;2023-04-22T10:39:30;100613.84;;;15.78;100.00
2268;BME280;11052;43.338;25.502;2023-04-22T10:42:07;100610.22;;;15.43;100.00
2268;BME280;11052;43.338;25.502;2023-04-22T10:44:47;100605.44;;;15.13;100.00
2268;BME280;11052;43.338;25.502;2023-04-22T10:47:28;100601.34;;;14.87;100.00
2268;BME280;11052;43.338;25.502;2023-04-22T10:50:15;100601.81;;;14.56;100.00
2268;BME280;11052;43.338;25.502;2023-04-22T10:52:45;100599.31;;;14.31;100.00
2268;BME280;11052;43.338;25.502;2023-04-22T10:55:13;100603.31;;;14.40;100.00
2268;BME280;11052;43.338;25.502;2023-04-22T10:57:42;100598.16;;;14.38;100.00
2268;BME280;11052;43.338;25.502;2023-04-22T11:00:21;100596.25;;;14.43;100.00
2268;BME280;11052;43.338;25.502;2023-04-22T11:02:56;100593.78;;;14.61;100.00
2268;BME280;11052;43.338;25.502;2023-04-22T11:05:33;100601.00;;;14.74;100.00
2268;BME280;11052;43.338;25.502;2023-04-22T11:08:02;100596.34;;;14.62;100.00
2268;BME280;11052;43.338;25.502;2023-04-22T11:10:34;100595.63;;;14.59;100.00
2268;BME280;11052;43.338;25.502;2023-04-22T11:13:06;100591.19;;;14.61;100.00
2268;BME280;11052;43.338;25.502;2023-04-22T11:15:35;100587.06;;;14.55;100.00
2268;BME280;11052;43.338;25.502;2023-04-22T11:18:07;100588.50;;;14.62;100.00
2268;BME280;11052;43.338;25.502;2023-04-22T11:20:37;100594.78;;;14.58;100.00
2268;BME280;11052;43.338;25.502;2023-04-22T11:23:04;100591.50;;;14.73;100.00
2268;BME280;11052;43.338;25.502;2023-04-22T11:25:31;100590.69;;;14.92;100.00
2268;BME280;11052;43.338;25.502;2023-04-22T11:27:58;100594.88;;;14.75;100.00
2268;BME280;11052;43.338;25.502;2023-04-22T11:30:27;100579.28;;;14.94;100.00
2268;BME280;11052;43.338;25.502;2023-04-22T11:32:57;100584.47;;;15.15;100.00
2268;BME280;11052;43.338;25.502;2023-04-22T11:35:26;100586.81;;;15.21;100.00
2268;BME280;11052;43.338;25.502;2023-04-22T11:37:57;100570.97;;;15.44;100.00
2268;BME280;11052;43.338;25.502;2023-04-22T11:40:26;100583.66;;;15.33;100.00
2268;BME280;11052;43.338;25.502;2023-04-22T11:42:54;100581.59;;;15.21;100.00
2268;BME280;11052;43.338;25.502;2023-04-22T11:45:22;100578.47;;;15.13;100.00
2268;BME280;11052;43.338;25.502;2023-04-22T11:47:50;100575.78;;;15.14;100.00
2268;BME280;11052;43.338;25.502;2023-04-22T11:50:21;100578.69;;;15.08;100.00
2268;BME280;11052;43.338;25.502;2023-04-22T11:52:51;100575.94;;;15.11;100.00
2268;BME280;11052;43.338;25.502;2023-04-22T11:55:22;100574.81;;;15.17;100.00
2268;BME280;11052;43.338;25.502;2023-04-22T11:57:54;100570.75;;;15.30;100.00
2268;BME280;11052;43.338;25.502;2023-04-22T12:00:23;100566.00;;;15.38;100.00
2268;BME280;11052;43.338;25.502;2023-04-22T12:02:59;100562.84;;;15.50;100.00
2268;BME280;11052;43.338;25.502;2023-04-22T12:05:37;100564.31;;;15.56;100.00
2268;BME280;11052;43.338;25.502;2023-04-22T12:08:09;100566.91;;;15.57;100.00
2268;BME280;11052;43.338;25.502;2023-04-22T12:10:42;100569.19;;;15.82;100.00
2268;BME280;11052;43.338;25.502;2023-04-22T12:13:17;100569.56;;;16.11;100.00
2268;BME280;11052;43.338;25.502;2023-04-22T12:15:44;100565.44;;;16.24;100.00
2268;BME280;11052;43.338;25.502;2023-04-22T12:18:11;100568.06;;;16.41;100.00
2268;BME280;11052;43.338;25.502;2023-04-22T12:20:39;100565.13;;;16.64;100.00
2268;BME280;11052;43.338;25.502;2023-04-22T12:23:13;100565.53;;;16.39;100.00
2268;BME280;11052;43.338;25.502;2023-04-22T12:25:42;100561.91;;;16.42;100.00
2268;BME280;11052;43.338;25.502;2023-04-22T12:28:10;100555.13;;;16.73;100.00
2268;BME280;11052;43.338;25.502;2023-04-22T12:30:37;100556.59;;;16.78;100.00
2268;BME280;11052;43.338;25.502;2023-04-22T12:33:05;100555.47;;;16.99;100.00
2268;BME280;11052;43.338;25.502;2023-04-22T12:35:32;100564.34;;;16.97;100.00
2268;BME280;11052;43.338;25.502;2023-04-22T12:37:59;100553.97;;;16.78;100.00
2268;BME280;11052;43.338;25.502;2023-04-22T12:40:27;100560.75;;;16.65;100.00
2268;BME280;11052;43.338;25.502;2023-04-22T12:42:55;100553.75;;;16.65;100.00
2268;BME280;11052;43.338;25.502;2023-04-22T12:45:22;100545.19;;;16.79;100.00
2268;BME280;11052;43.338;25.502;2023-04-22T12:47:50;100551.06;;;17.00;100.00